sensor_id;sensor_type;location;lat;lon;timestamp;pressure;altitude;pressure_sealevel;temperature
69704;BMP280;56967;43.538;-5.646;2022-11-09T00:00:44;101094.00;;;24.99
69704;BMP280;56967;43.538;-5.646;2022-11-09T00:03:10;101094.31;;;24.76
69704;BMP280;56967;43.538;-5.646;2022-11-09T00:05:36;101092.00;;;24.33
69704;BMP280;56967;43.538;-5.646;2022-11-09T00:08:06;101093.09;;;24.82
69704;BMP280;56967;43.538;-5.646;2022-11-09T00:10:32;101107.34;;;24.69
69704;BMP280;56967;43.538;-5.646;2022-11-09T00:12:58;101107.03;;;24.84
69704;BMP280;56967;43.538;-5.646;2022-11-09T00:15:23;101110.47;;;24.62
69704;BMP280;56967;43.538;-5.646;2022-11-09T00:17:49;101109.69;;;24.62
69704;BMP280;56967;43.538;-5.646;2022-11-09T00:20:15;101117.91;;;24.16
69704;BMP280;56967;43.538;-5.646;2022-11-09T00:22:40;101113.00;;;23.91
69704;BMP280;56967;43.538;-5.646;2022-11-09T00:25:06;101110.13;;;23.87
69704;BMP280;56967;43.538;-5.646;2022-11-09T00:27:32;101116.88;;;23.71
69704;BMP280;56967;43.538;-5.646;2022-11-09T00:29:57;101123.97;;;24.84
69704;BMP280;56967;43.538;-5.646;2022-11-09T00:32:26;101127.22;;;23.91
69704;BMP280;56967;43.538;-5.646;2022-11-09T00:34:52;101126.28;;;23.55
69704;BMP280;56967;43.538;-5.646;2022-11-09T00:37:17;101126.03;;;24.38
69704;BMP280;56967;43.538;-5.646;2022-11-09T00:39:43;101132.03;;;23.30
69704;BMP280;56967;43.538;-5.646;2022-11-09T00:42:08;101128.88;;;23.41
69704;BMP280;56967;43.538;-5.646;2022-11-09T00:44:33;101132.59;;;23.91
69704;BMP280;56967;43.538;-5.646;2022-11-09T00:46:59;101133.81;;;24.89
69704;BMP280;56967;43.538;-5.646;2022-11-09T00:49:24;101136.53;;;24.40
69704;BMP280;56967;43.538;-5.646;2022-11-09T00:51:50;101136.31;;;22.75
69704;BMP280;56967;43.538;-5.646;2022-11-09T00:54:15;101145.44;;;23.30
69704;BMP280;56967;43.538;-5.646;2022-11-09T00:56:41;101142.00;;;23.62
69704;BMP280;56967;43.538;-5.646;2022-11-09T00:59:09;101150.34;;;22.86
69704;BMP280;56967;43.538;-5.646;2022-11-09T01:01:34;101143.16;;;24.56
69704;BMP280;56967;43.538;-5.646;2022-11-09T01:04:00;101148.53;;;24.56
69704;BMP280;56967;43.538;-5.646;2022-11-09T01:06:25;101143.78;;;23.66
69704;BMP280;56967;43.538;-5.646;2022-11-09T01:08:51;101148.22;;;23.89
69704;BMP280;56967;43.538;-5.646;2022-11-09T01:11:18;101148.63;;;23.96
69704;BMP280;56967;43.538;-5.646;2022-11-09T01:13:44;101145.56;;;24.03
69704;BMP280;56967;43.538;-5.646;2022-11-09T01:16:13;101156.03;;;23.72
69704;BMP280;56967;43.538;-5.646;2022-11-09T01:18:39;101176.28;;;23.97
69704;BMP280;56967;43.538;-5.646;2022-11-09T01:21:06;101180.91;;;24.51
69704;BMP280;56967;43.538;-5.646;2022-11-09T01:23:33;101187.59;;;24.26
69704;BMP280;56967;43.538;-5.646;2022-11-09T01:26:04;101181.81;;;24.33
69704;BMP280;56967;43.538;-5.646;2022-11-09T01:28:31;101177.34;;;23.82
69704;BMP280;56967;43.538;-5.646;2022-11-09T01:31:00;101183.06;;;23.94
69704;BMP280;56967;43.538;-5.646;2022-11-09T01:33:26;101185.97;;;23.66
69704;BMP280;56967;43.538;-5.646;2022-11-09T01:35:52;101190.41;;;23.89
69704;BMP280;56967;43.538;-5.646;2022-11-09T01:38:17;101194.03;;;24.39
69704;BMP280;56967;43.538;-5.646;2022-11-09T01:40:43;101200.50;;;24.51
69704;BMP280;56967;43.538;-5.646;2022-11-09T01:43:20;101202.09;;;24.52
69704;BMP280;56967;43.538;-5.646;2022-11-09T01:46:11;101210.78;;;24.36
69704;BMP280;56967;43.538;-5.646;2022-11-09T01:48:54;101207.75;;;24.37
69704;BMP280;56967;43.538;-5.646;2022-11-09T01:51:43;101209.59;;;23.96
69704;BMP280;56967;43.538;-5.646;2022-11-09T01:54:36;101216.16;;;23.58
69704;BMP280;56967;43.538;-5.646;2022-11-09T01:57:09;101218.34;;;24.47
69704;BMP280;56967;43.538;-5.646;2022-11-09T01:59:46;101217.53;;;24.33
69704;BMP280;56967;43.538;-5.646;2022-11-09T02:02:13;101208.66;;;24.05
69704;BMP280;56967;43.538;-5.646;2022-11-09T02:05:09;101211.03;;;23.75
69704;BMP280;56967;43.538;-5.646;2022-11-09T02:07:36;101212.72;;;23.52
69704;BMP280;56967;43.538;-5.646;2022-11-09T02:10:10;101216.41;;;23.75
69704;BMP280;56967;43.538;-5.646;2022-11-09T02:12:37;101216.28;;;23.66
69704;BMP280;56967;43.538;-5.646;2022-11-09T02:15:04;101211.13;;;25.33
69704;BMP280;56967;43.538;-5.646;2022-11-09T02:17:31;101225.00;;;23.90
69704;BMP280;56967;43.538;-5.646;2022-11-09T02:19:57;101221.06;;;24.01
69704;BMP280;56967;43.538;-5.646;2022-11-09T02:22:23;101222.94;;;24.47
69704;BMP280;56967;43.538;-5.646;2022-11-09T02:24:49;101220.91;;;24.79
69704;BMP280;56967;43.538;-5.646;2022-11-09T02:27:15;101244.44;;;24.47
69704;BMP280;56967;43.538;-5.646;2022-11-09T02:29:43;101236.44;;;24.55
69704;BMP280;56967;43.538;-5.646;2022-11-09T02:32:12;101243.44;;;24.43
69704;BMP280;56967;43.538;-5.646;2022-11-09T02:34:39;101234.28;;;24.57
69704;BMP280;56967;43.538;-5.646;2022-11-09T02:37:05;101237.34;;;24.78
69704;BMP280;56967;43.538;-5.646;2022-11-09T02:39:30;101233.03;;;24.90
69704;BMP280;56967;43.538;-5.646;2022-11-09T02:42:08;101233.31;;;25.82
69704;BMP280;56967;43.538;-5.646;2022-11-09T02:44:38;101245.34;;;26.07
69704;BMP280;56967;43.538;-5.646;2022-11-09T02:47:04;101244.03;;;24.67
69704;BMP280;56967;43.538;-5.646;2022-11-09T02:49:30;101243.13;;;25.78
69704;BMP280;56967;43.538;-5.646;2022-11-09T02:51:55;101245.88;;;25.43
69704;BMP280;56967;43.538;-5.646;2022-11-09T02:54:21;101252.13;;;24.53
69704;BMP280;56967;43.538;-5.646;2022-11-09T02:56:46;101253.03;;;24.16
69704;BMP280;56967;43.538;-5.646;2022-11-09T02:59:12;101254.63;;;23.53
69704;BMP280;56967;43.538;-5.646;2022-11-09T03:01:37;101260.34;;;24.29
69704;BMP280;56967;43.538;-5.646;2022-11-09T03:04:03;101260.75;;;23.72
69704;BMP280;56967;43.538;-5.646;2022-11-09T03:06:28;101268.09;;;24.31
69704;BMP280;56967;43.538;-5.646;2022-11-09T03:09:04;101272.19;;;24.28
69704;BMP280;56967;43.538;-5.646;2022-11-09T03:11:30;101273.75;;;23.84
69704;BMP280;56967;43.538;-5.646;2022-11-09T03:13:56;101274.63;;;24.57
69704;BMP280;56967;43.538;-5.646;2022-11-09T03:16:21;101281.78;;;24.62
69704;BMP280;56967;43.538;-5.646;2022-11-09T03:18:47;101288.91;;;24.25
69704;BMP280;56967;43.538;-5.646;2022-11-09T03:21:13;101276.56;;;24.38
69704;BMP280;56967;43.538;-5.646;2022-11-09T03:23:38;101286.38;;;24.61
69704;BMP280;56967;43.538;-5.646;2022-11-09T03:26:04;101278.31;;;24.61
69704;BMP280;56967;43.538;-5.646;2022-11-09T03:28:29;101280.91;;;24.20
69704;BMP280;56967;43.538;-5.646;2022-11-09T03:30:55;101286.47;;;24.10
69704;BMP280;56967;43.538;-5.646;2022-11-09T03:33:20;101273.91;;;27.29
69704;BMP280;56967;43.538;-5.646;2022-11-09T03:35:46;101287.84;;;25.08
69704;BMP280;56967;43.538;-5.646;2022-11-09T03:38:12;101285.72;;;25.18
69704;BMP280;56967;43.538;-5.646;2022-11-09T03:40:38;101293.00;;;25.18
69704;BMP280;56967;43.538;-5.646;2022-11-09T03:43:03;101293.44;;;24.44
69704;BMP280;56967;43.538;-5.646;2022-11-09T03:45:29;101293.31;;;25.03
69704;BMP280;56967;43.538;-5.646;2022-11-09T03:47:54;101290.41;;;24.59
69704;BMP280;56967;43.538;-5.646;2022-11-09T03:50:29;101285.97;;;24.54
69704;BMP280;56967;43.538;-5.646;2022-11-09T03:52:55;101302.78;;;24.46
69704;BMP280;56967;43.538;-5.646;2022-11-09T03:55:20;101301.53;;;24.84
69704;BMP280;56967;43.538;-5.646;2022-11-09T03:57:46;101303.28;;;24.75
69704;BMP280;56967;43.538;-5.646;2022-11-09T04:00:14;101302.88;;;24.55
69704;BMP280;56967;43.538;-5.646;2022-11-09T04:02:40;101315.91;;;24.48
69704;BMP280;56967;43.538;-5.646;2022-11-09T04:05:07;101310.47;;;24.20
69704;BMP280;56967;43.538;-5.646;2022-11-09T04:07:32;101313.63;;;24.55
69704;BMP280;56967;43.538;-5.646;2022-11-09T04:09:58;101324.28;;;24.14
69704;BMP280;56967;43.538;-5.646;2022-11-09T04:12:23;101313.50;;;23.26
69704;BMP280;56967;43.538;-5.646;2022-11-09T04:14:49;101315.25;;;23.12
69704;BMP280;56967;43.538;-5.646;2022-11-09T04:17:15;101321.13;;;23.93
69704;BMP280;56967;43.538;-5.646;2022-11-09T04:19:40;101324.69;;;23.70
69704;BMP280;56967;43.538;-5.646;2022-11-09T04:22:06;101320.53;;;23.96
69704;BMP280;56967;43.538;-5.646;2022-11-09T04:24:31;101321.38;;;24.29
69704;BMP280;56967;43.538;-5.646;2022-11-09T04:26:57;101320.53;;;24.74
69704;BMP280;56967;43.538;-5.646;2022-11-09T04:29:22;101316.22;;;24.46
69704;BMP280;56967;43.538;-5.646;2022-11-09T04:31:48;101326.47;;;24.44
69704;BMP280;56967;43.538;-5.646;2022-11-09T04:34:14;101317.09;;;22.93
69704;BMP280;56967;43.538;-5.646;2022-11-09T04:36:40;101320.78;;;24.13
69704;BMP280;56967;43.538;-5.646;2022-11-09T04:39:05;101320.84;;;23.39
69704;BMP280;56967;43.538;-5.646;2022-11-09T04:41:31;101323.38;;;24.05
69704;BMP280;56967;43.538;-5.646;2022-11-09T04:43:56;101324.38;;;24.55
69704;BMP280;56967;43.538;-5.646;2022-11-09T04:46:22;101327.03;;;24.41
69704;BMP280;56967;43.538;-5.646;2022-11-09T04:48:47;101332.13;;;24.10
69704;BMP280;56967;43.538;-5.646;2022-11-09T04:51:13;101337.56;;;24.70
69704;BMP280;56967;43.538;-5.646;2022-11-09T04:53:39;101336.34;;;24.49
69704;BMP280;56967;43.538;-5.646;2022-11-09T04:56:05;101332.78;;;24.53
69704;BMP280;56967;43.538;-5.646;2022-11-09T04:58:31;101337.72;;;24.46
69704;BMP280;56967;43.538;-5.646;2022-11-09T05:01:08;101347.91;;;24.49
69704;BMP280;56967;43.538;-5.646;2022-11-09T05:03:34;101336.53;;;24.20
69704;BMP280;56967;43.538;-5.646;2022-11-09T05:06:00;101341.66;;;24.03
69704;BMP280;56967;43.538;-5.646;2022-11-09T05:08:46;101342.56;;;24.30
69704;BMP280;56967;43.538;-5.646;2022-11-09T05:11:11;101342.63;;;23.93
69704;BMP280;56967;43.538;-5.646;2022-11-09T05:13:37;101340.50;;;23.53
69704;BMP280;56967;43.538;-5.646;2022-11-09T05:16:03;101349.72;;;24.21
69704;BMP280;56967;43.538;-5.646;2022-11-09T05:18:28;101352.78;;;23.78
69704;BMP280;56967;43.538;-5.646;2022-11-09T05:20:58;101351.03;;;24.05
69704;BMP280;56967;43.538;-5.646;2022-11-09T05:23:23;101362.09;;;23.85
69704;BMP280;56967;43.538;-5.646;2022-11-09T05:26:07;101360.28;;;23.62
69704;BMP280;56967;43.538;-5.646;2022-11-09T05:28:33;101360.25;;;23.81
69704;BMP280;56967;43.538;-5.646;2022-11-09T05:30:58;101355.13;;;23.66
69704;BMP280;56967;43.538;-5.646;2022-11-09T05:33:24;101354.66;;;23.59
69704;BMP280;56967;43.538;-5.646;2022-11-09T05:35:49;101350.31;;;23.44
69704;BMP280;56967;43.538;-5.646;2022-11-09T05:38:15;101344.19;;;23.38
69704;BMP280;56967;43.538;-5.646;2022-11-09T05:40:40;101349.63;;;23.10
69704;BMP280;56967;43.538;-5.646;2022-11-09T05:43:06;101355.56;;;23.07
69704;BMP280;56967;43.538;-5.646;2022-11-09T05:45:31;101350.50;;;22.77
69704;BMP280;56967;43.538;-5.646;2022-11-09T05:47:57;101355.41;;;22.93
69704;BMP280;56967;43.538;-5.646;2022-11-09T05:50:22;101350.69;;;23.09
69704;BMP280;56967;43.538;-5.646;2022-11-09T05:52:48;101358.81;;;23.04
69704;BMP280;56967;43.538;-5.646;2022-11-09T05:55:13;101354.50;;;22.79
69704;BMP280;56967;43.538;-5.646;2022-11-09T05:57:39;101359.78;;;22.89
69704;BMP280;56967;43.538;-5.646;2022-11-09T06:00:05;101355.41;;;22.70
69704;BMP280;56967;43.538;-5.646;2022-11-09T06:02:31;101362.50;;;22.55
69704;BMP280;56967;43.538;-5.646;2022-11-09T06:04:57;101366.25;;;22.54
69704;BMP280;56967;43.538;-5.646;2022-11-09T06:07:23;101360.22;;;23.20
69704;BMP280;56967;43.538;-5.646;2022-11-09T06:09:49;101363.38;;;22.75
69704;BMP280;56967;43.538;-5.646;2022-11-09T06:12:15;101361.50;;;22.75
69704;BMP280;56967;43.538;-5.646;2022-11-09T06:14:40;101366.53;;;22.82
69704;BMP280;56967;43.538;-5.646;2022-11-09T06:17:06;101365.41;;;22.25
69704;BMP280;56967;43.538;-5.646;2022-11-09T06:19:31;101371.84;;;22.24
69704;BMP280;56967;43.538;-5.646;2022-11-09T06:22:00;101373.34;;;22.69
69704;BMP280;56967;43.538;-5.646;2022-11-09T06:24:25;101378.50;;;22.27
69704;BMP280;56967;43.538;-5.646;2022-11-09T06:26:51;101383.84;;;22.27
69704;BMP280;56967;43.538;-5.646;2022-11-09T06:29:16;101387.75;;;23.30
69704;BMP280;56967;43.538;-5.646;2022-11-09T06:31:42;101395.78;;;23.54
69704;BMP280;56967;43.538;-5.646;2022-11-09T06:34:07;101389.00;;;23.62
69704;BMP280;56967;43.538;-5.646;2022-11-09T06:36:33;101395.16;;;22.24
69704;BMP280;56967;43.538;-5.646;2022-11-09T06:38:58;101395.16;;;22.24
69704;BMP280;56967;43.538;-5.646;2022-11-09T06:41:24;101400.69;;;21.94
69704;BMP280;56967;43.538;-5.646;2022-11-09T06:43:49;101404.63;;;22.79
69704;BMP280;56967;43.538;-5.646;2022-11-09T06:46:15;101405.63;;;22.88
69704;BMP280;56967;43.538;-5.646;2022-11-09T06:48:41;101398.34;;;22.59
69704;BMP280;56967;43.538;-5.646;2022-11-09T06:51:08;101406.47;;;23.12
69704;BMP280;56967;43.538;-5.646;2022-11-09T06:53:34;101411.84;;;22.83
69704;BMP280;56967;43.538;-5.646;2022-11-09T06:56:03;101410.50;;;22.03
69704;BMP280;56967;43.538;-5.646;2022-11-09T06:58:29;101412.28;;;21.69
69704;BMP280;56967;43.538;-5.646;2022-11-09T07:00:55;101413.78;;;23.06
69704;BMP280;56967;43.538;-5.646;2022-11-09T07:03:21;101415.97;;;21.88
69704;BMP280;56967;43.538;-5.646;2022-11-09T07:05:48;101426.88;;;22.79
69704;BMP280;56967;43.538;-5.646;2022-11-09T07:08:15;101432.31;;;22.74
69704;BMP280;56967;43.538;-5.646;2022-11-09T07:10:42;101444.34;;;23.05
69704;BMP280;56967;43.538;-5.646;2022-11-09T07:13:08;101435.50;;;23.05
69704;BMP280;56967;43.538;-5.646;2022-11-09T07:15:35;101442.31;;;24.10
69704;BMP280;56967;43.538;-5.646;2022-11-09T07:18:02;101448.50;;;23.45
69704;BMP280;56967;43.538;-5.646;2022-11-09T07:20:28;101452.91;;;23.36
69704;BMP280;56967;43.538;-5.646;2022-11-09T07:22:54;101456.16;;;23.33
69704;BMP280;56967;43.538;-5.646;2022-11-09T07:25:20;101464.13;;;23.14
69704;BMP280;56967;43.538;-5.646;2022-11-09T07:27:46;101470.91;;;22.73
69704;BMP280;56967;43.538;-5.646;2022-11-09T07:30:12;101475.38;;;24.29
69704;BMP280;56967;43.538;-5.646;2022-11-09T07:32:38;101488.22;;;23.48
69704;BMP280;56967;43.538;-5.646;2022-11-09T07:35:04;101484.97;;;24.36
69704;BMP280;56967;43.538;-5.646;2022-11-09T07:37:30;101495.28;;;23.86
69704;BMP280;56967;43.538;-5.646;2022-11-09T07:39:56;101498.81;;;23.82
69704;BMP280;56967;43.538;-5.646;2022-11-09T07:42:22;101502.03;;;23.60
69704;BMP280;56967;43.538;-5.646;2022-11-09T07:44:48;101504.19;;;23.58
69704;BMP280;56967;43.538;-5.646;2022-11-09T07:47:13;101514.19;;;24.00
69704;BMP280;56967;43.538;-5.646;2022-11-09T07:49:40;101514.28;;;23.71
69704;BMP280;56967;43.538;-5.646;2022-11-09T07:52:05;101528.47;;;23.95
69704;BMP280;56967;43.538;-5.646;2022-11-09T07:54:31;101523.66;;;24.16
69704;BMP280;56967;43.538;-5.646;2022-11-09T07:56:56;101529.53;;;24.18
69704;BMP280;56967;43.538;-5.646;2022-11-09T07:59:22;101539.00;;;24.34
69704;BMP280;56967;43.538;-5.646;2022-11-09T08:01:47;101545.72;;;24.31
69704;BMP280;56967;43.538;-5.646;2022-11-09T08:04:13;101552.50;;;24.29
69704;BMP280;56967;43.538;-5.646;2022-11-09T08:06:39;101553.31;;;24.06
69704;BMP280;56967;43.538;-5.646;2022-11-09T08:09:04;101560.16;;;25.69
69704;BMP280;56967;43.538;-5.646;2022-11-09T08:11:30;101566.38;;;24.73
69704;BMP280;56967;43.538;-5.646;2022-11-09T08:13:55;101565.34;;;25.20
69704;BMP280;56967;43.538;-5.646;2022-11-09T08:16:21;101558.47;;;24.45
69704;BMP280;56967;43.538;-5.646;2022-11-09T08:18:48;101556.31;;;24.04
69704;BMP280;56967;43.538;-5.646;2022-11-09T08:21:14;101563.47;;;24.88
69704;BMP280;56967;43.538;-5.646;2022-11-09T08:23:39;101575.69;;;26.13
69704;BMP280;56967;43.538;-5.646;2022-11-09T08:26:05;101582.44;;;24.97
69704;BMP280;56967;43.538;-5.646;2022-11-09T08:28:32;101584.78;;;25.36
69704;BMP280;56967;43.538;-5.646;2022-11-09T08:31:00;101583.06;;;26.57
69704;BMP280;56967;43.538;-5.646;2022-11-09T08:33:28;101592.97;;;25.12
69704;BMP280;56967;43.538;-5.646;2022-11-09T08:35:54;101581.81;;;25.18
69704;BMP280;56967;43.538;-5.646;2022-11-09T08:38:19;101579.31;;;24.90
69704;BMP280;56967;43.538;-5.646;2022-11-09T08:40:45;101579.47;;;25.44
69704;BMP280;56967;43.538;-5.646;2022-11-09T08:43:11;101579.97;;;25.33
69704;BMP280;56967;43.538;-5.646;2022-11-09T08:45:38;101575.22;;;25.84
69704;BMP280;56967;43.538;-5.646;2022-11-09T08:48:04;101578.28;;;26.04
69704;BMP280;56967;43.538;-5.646;2022-11-09T08:50:32;101571.56;;;27.18
69704;BMP280;56967;43.538;-5.646;2022-11-09T08:52:59;101583.75;;;27.15
69704;BMP280;56967;43.538;-5.646;2022-11-09T08:55:25;101579.34;;;26.66
69704;BMP280;56967;43.538;-5.646;2022-11-09T08:57:55;101586.72;;;25.76
69704;BMP280;56967;43.538;-5.646;2022-11-09T09:00:21;101590.59;;;25.24
69704;BMP280;56967;43.538;-5.646;2022-11-09T09:02:46;101599.56;;;25.92
69704;BMP280;56967;43.538;-5.646;2022-11-09T09:05:12;101593.53;;;26.09
69704;BMP280;56967;43.538;-5.646;2022-11-09T09:07:38;101604.63;;;26.35
69704;BMP280;56967;43.538;-5.646;2022-11-09T09:10:04;101600.94;;;26.66
69704;BMP280;56967;43.538;-5.646;2022-11-09T09:12:29;101602.59;;;26.98
69704;BMP280;56967;43.538;-5.646;2022-11-09T09:14:55;101604.03;;;26.60
69704;BMP280;56967;43.538;-5.646;2022-11-09T09:17:21;101609.50;;;27.13
69704;BMP280;56967;43.538;-5.646;2022-11-09T09:19:46;101624.81;;;27.56
69704;BMP280;56967;43.538;-5.646;2022-11-09T09:22:12;101630.31;;;27.82
69704;BMP280;56967;43.538;-5.646;2022-11-09T09:24:37;101629.75;;;28.02
69704;BMP280;56967;43.538;-5.646;2022-11-09T09:27:03;101632.16;;;28.29
69704;BMP280;56967;43.538;-5.646;2022-11-09T09:29:28;101632.34;;;28.50
69704;BMP280;56967;43.538;-5.646;2022-11-09T09:31:54;101638.50;;;28.07
69704;BMP280;56967;43.538;-5.646;2022-11-09T09:34:19;101641.94;;;27.91
69704;BMP280;56967;43.538;-5.646;2022-11-09T09:36:45;101634.16;;;27.89
69704;BMP280;56967;43.538;-5.646;2022-11-09T09:39:10;101638.78;;;27.50
69704;BMP280;56967;43.538;-5.646;2022-11-09T09:44:29;101641.22;;;26.85
69704;BMP280;56967;43.538;-5.646;2022-11-09T09:49:47;101643.06;;;25.72
69704;BMP280;56967;43.538;-5.646;2022-11-09T09:55:23;101648.28;;;25.18
69704;BMP280;56967;43.538;-5.646;2022-11-09T09:57:53;101659.88;;;25.51
69704;BMP280;56967;43.538;-5.646;2022-11-09T10:00:24;101671.72;;;26.36
69704;BMP280;56967;43.538;-5.646;2022-11-09T10:02:51;101677.13;;;27.07
69704;BMP280;56967;43.538;-5.646;2022-11-09T10:05:18;101690.50;;;26.90
69704;BMP280;56967;43.538;-5.646;2022-11-09T10:08:00;101682.66;;;27.55
69704;BMP280;56967;43.538;-5.646;2022-11-09T10:13:21;101680.09;;;28.46
69704;BMP280;56967;43.538;-5.646;2022-11-09T10:26:57;101696.50;;;28.92
69704;BMP280;56967;43.538;-5.646;2022-11-09T10:29:25;101682.81;;;28.80
69704;BMP280;56967;43.538;-5.646;2022-11-09T10:31:59;101697.41;;;30.47
69704;BMP280;56967;43.538;-5.646;2022-11-09T10:34:31;101701.72;;;30.68
69704;BMP280;56967;43.538;-5.646;2022-11-09T10:37:12;101707.00;;;29.10
69704;BMP280;56967;43.538;-5.646;2022-11-09T10:39:59;101709.16;;;29.34
69704;BMP280;56967;43.538;-5.646;2022-11-09T10:42:28;101705.19;;;29.78
69704;BMP280;56967;43.538;-5.646;2022-11-09T10:44:53;101707.03;;;29.94
69704;BMP280;56967;43.538;-5.646;2022-11-09T10:47:19;101709.69;;;30.32
69704;BMP280;56967;43.538;-5.646;2022-11-09T10:52:51;101722.66;;;29.68
69704;BMP280;56967;43.538;-5.646;2022-11-09T10:55:25;101726.72;;;29.45
69704;BMP280;56967;43.538;-5.646;2022-11-09T11:00:19;101717.41;;;29.55
69704;BMP280;56967;43.538;-5.646;2022-11-09T11:02:48;101712.75;;;28.92
69704;BMP280;56967;43.538;-5.646;2022-11-09T11:07:43;101722.91;;;28.52
69704;BMP280;56967;43.538;-5.646;2022-11-09T11:12:35;101716.50;;;28.23
69704;BMP280;56967;43.538;-5.646;2022-11-09T11:15:00;101717.41;;;28.09
69704;BMP280;56967;43.538;-5.646;2022-11-09T11:17:33;101718.28;;;28.27
69704;BMP280;56967;43.538;-5.646;2022-11-09T11:22:48;101718.09;;;27.76
69704;BMP280;56967;43.538;-5.646;2022-11-09T11:25:21;101716.28;;;27.63
69704;BMP280;56967;43.538;-5.646;2022-11-09T11:27:57;101709.63;;;27.47
69704;BMP280;56967;43.538;-5.646;2022-11-09T11:30:31;101721.66;;;27.93
69704;BMP280;56967;43.538;-5.646;2022-11-09T11:32:59;101715.50;;;28.10
69704;BMP280;56967;43.538;-5.646;2022-11-09T11:35:57;101719.69;;;27.85
69704;BMP280;56967;43.538;-5.646;2022-11-09T11:38:31;101711.44;;;28.30
69704;BMP280;56967;43.538;-5.646;2022-11-09T11:46:44;101710.03;;;27.93
69704;BMP280;56967;43.538;-5.646;2022-11-09T12:00:12;101701.25;;;27.48
69704;BMP280;56967;43.538;-5.646;2022-11-09T12:08:11;101692.31;;;27.78
69704;BMP280;56967;43.538;-5.646;2022-11-09T12:16:27;101691.09;;;27.54
69704;BMP280;56967;43.538;-5.646;2022-11-09T12:24:42;101692.63;;;27.46
69704;BMP280;56967;43.538;-5.646;2022-11-09T12:30:05;101687.53;;;27.67
69704;BMP280;56967;43.538;-5.646;2022-11-09T12:32:56;101684.78;;;28.06
69704;BMP280;56967;43.538;-5.646;2022-11-09T12:35:37;101680.72;;;27.86
69704;BMP280;56967;43.538;-5.646;2022-11-09T12:38:20;101677.84;;;27.83
69704;BMP280;56967;43.538;-5.646;2022-11-09T12:40:54;101678.88;;;27.65
69704;BMP280;56967;43.538;-5.646;2022-11-09T12:43:43;101676.75;;;26.65
69704;BMP280;56967;43.538;-5.646;2022-11-09T12:46:09;101683.81;;;27.54
69704;BMP280;56967;43.538;-5.646;2022-11-09T12:48:35;101681.09;;;26.88
69704;BMP280;56967;43.538;-5.646;2022-11-09T12:51:03;101686.09;;;26.32
69704;BMP280;56967;43.538;-5.646;2022-11-09T12:53:33;101685.63;;;26.16
69704;BMP280;56967;43.538;-5.646;2022-11-09T12:56:14;101688.41;;;25.97
69704;BMP280;56967;43.538;-5.646;2022-11-09T12:58:42;101682.00;;;25.93
69704;BMP280;56967;43.538;-5.646;2022-11-09T13:04:00;101683.41;;;26.94
69704;BMP280;56967;43.538;-5.646;2022-11-09T13:06:31;101688.16;;;26.75
69704;BMP280;56967;43.538;-5.646;2022-11-09T13:09:00;101684.81;;;26.29
69704;BMP280;56967;43.538;-5.646;2022-11-09T13:11:36;101684.59;;;26.88
69704;BMP280;56967;43.538;-5.646;2022-11-09T13:16:52;101686.53;;;26.25
69704;BMP280;56967;43.538;-5.646;2022-11-09T13:22:55;101681.84;;;26.31
69704;BMP280;56967;43.538;-5.646;2022-11-09T13:24:54;101688.78;;;25.91
69704;BMP280;56967;43.538;-5.646;2022-11-09T13:38:18;101691.91;;;25.52
69704;BMP280;56967;43.538;-5.646;2022-11-09T13:40:57;101683.47;;;24.47
69704;BMP280;56967;43.538;-5.646;2022-11-09T13:43:39;101684.97;;;25.14
69704;BMP280;56967;43.538;-5.646;2022-11-09T13:46:30;101677.47;;;27.14
69704;BMP280;56967;43.538;-5.646;2022-11-09T13:48:57;101685.00;;;26.19
69704;BMP280;56967;43.538;-5.646;2022-11-09T13:51:37;101693.91;;;25.92
69704;BMP280;56967;43.538;-5.646;2022-11-09T13:56:53;101694.88;;;25.18
69704;BMP280;56967;43.538;-5.646;2022-11-09T13:59:30;101681.47;;;27.70
69704;BMP280;56967;43.538;-5.646;2022-11-09T14:01:58;101695.38;;;25.20
69704;BMP280;56967;43.538;-5.646;2022-11-09T14:04:38;101703.66;;;25.43
69704;BMP280;56967;43.538;-5.646;2022-11-09T14:10:24;101706.91;;;26.04
69704;BMP280;56967;43.538;-5.646;2022-11-09T14:18:03;101717.84;;;26.62
69704;BMP280;56967;43.538;-5.646;2022-11-09T14:23:23;101709.47;;;25.95
69704;BMP280;56967;43.538;-5.646;2022-11-09T14:25:48;101719.72;;;25.48
69704;BMP280;56967;43.538;-5.646;2022-11-09T14:28:23;101721.38;;;25.62
69704;BMP280;56967;43.538;-5.646;2022-11-09T14:30:49;101719.47;;;25.31
69704;BMP280;56967;43.538;-5.646;2022-11-09T14:33:32;101729.13;;;25.64
69704;BMP280;56967;43.538;-5.646;2022-11-09T14:36:01;101736.81;;;25.57
69704;BMP280;56967;43.538;-5.646;2022-11-09T14:38:27;101745.50;;;25.86
69704;BMP280;56967;43.538;-5.646;2022-11-09T14:40:54;101743.38;;;25.51
69704;BMP280;56967;43.538;-5.646;2022-11-09T14:43:35;101750.50;;;25.42
69704;BMP280;56967;43.538;-5.646;2022-11-09T14:46:04;101756.25;;;27.30
69704;BMP280;56967;43.538;-5.646;2022-11-09T14:48:31;101760.59;;;27.18
69704;BMP280;56967;43.538;-5.646;2022-11-09T14:51:02;101756.19;;;26.04
69704;BMP280;56967;43.538;-5.646;2022-11-09T14:53:30;101770.00;;;25.71
69704;BMP280;56967;43.538;-5.646;2022-11-09T14:55:59;101773.06;;;24.90
69704;BMP280;56967;43.538;-5.646;2022-11-09T14:58:27;101788.88;;;25.52
69704;BMP280;56967;43.538;-5.646;2022-11-09T15:01:23;101785.00;;;24.79
69704;BMP280;56967;43.538;-5.646;2022-11-09T15:04:12;101788.13;;;25.47
69704;BMP280;56967;43.538;-5.646;2022-11-09T15:06:53;101789.13;;;25.13
69704;BMP280;56967;43.538;-5.646;2022-11-09T15:09:31;101783.47;;;25.34
69704;BMP280;56967;43.538;-5.646;2022-11-09T15:11:57;101783.94;;;25.22
69704;BMP280;56967;43.538;-5.646;2022-11-09T15:14:31;101786.53;;;25.96
69704;BMP280;56967;43.538;-5.646;2022-11-09T15:17:09;101796.66;;;26.18
69704;BMP280;56967;43.538;-5.646;2022-11-09T15:22:41;101805.34;;;26.15
69704;BMP280;56967;43.538;-5.646;2022-11-09T15:33:48;101813.38;;;26.47
69704;BMP280;56967;43.538;-5.646;2022-11-09T15:39:11;101820.81;;;26.23
69704;BMP280;56967;43.538;-5.646;2022-11-09T15:41:38;101814.06;;;26.39
69704;BMP280;56967;43.538;-5.646;2022-11-09T15:44:04;101818.06;;;26.28
69704;BMP280;56967;43.538;-5.646;2022-11-09T15:46:36;101821.50;;;26.01
69704;BMP280;56967;43.538;-5.646;2022-11-09T15:49:15;101821.66;;;26.37
69704;BMP280;56967;43.538;-5.646;2022-11-09T15:51:41;101817.06;;;25.92